createdAt,value
2018-11-28T00:00:28.976Z,4.23
2018-11-28T00:02:57.738Z,3.10
2018-11-28T00:05:26.187Z,4.10
2018-11-28T00:07:54.589Z,3.90
2018-11-28T00:10:23.238Z,3.67
2018-11-28T00:12:51.734Z,4.10
2018-11-28T00:15:20.139Z,4.10
2018-11-28T00:17:48.555Z,4.23
2018-11-28T00:20:19.606Z,3.97
2018-11-28T00:22:48.239Z,3.47
2018-11-28T00:25:17.307Z,4.37
2018-11-28T00:27:45.755Z,3.90
2018-11-28T00:30:17.062Z,4.10
2018-11-28T00:32:45.215Z,4.57
2018-11-28T00:35:16.794Z,4.03
2018-11-28T00:37:45.213Z,4.67
2018-11-28T00:40:14.632Z,3.90
2018-11-28T00:42:43.054Z,4.23
2018-11-28T00:45:20.041Z,3.10
2018-11-28T00:47:48.489Z,3.83
2018-11-28T00:50:19.128Z,3.40
2018-11-28T00:52:47.547Z,2.20
2018-11-28T00:55:16.773Z,1.87
2018-11-28T00:57:45.527Z,2.17
2018-11-28T01:00:15.924Z,2.10
2018-11-28T01:02:44.118Z,3.13
2018-11-28T01:05:13.072Z,3.57
2018-11-28T01:07:41.964Z,3.47
2018-11-28T01:10:18.781Z,3.83
2018-11-28T01:12:47.747Z,3.50
2018-11-28T01:15:17.010Z,3.73
2018-11-28T01:17:45.463Z,3.53
2018-11-28T01:20:15.232Z,3.27
2018-11-28T01:22:43.755Z,3.57
2018-11-28T01:25:13.463Z,3.57
2018-11-28T01:27:42.065Z,3.20
2018-11-28T01:30:14.485Z,3.80
2018-11-28T01:32:43.114Z,3.37
2018-11-28T01:35:12.505Z,3.23
2018-11-28T01:37:40.746Z,2.77
2018-11-28T01:40:24.609Z,3.67
2018-11-28T01:42:52.882Z,3.17
2018-11-28T01:45:22.579Z,3.33
2018-11-28T01:47:51.039Z,3.50
2018-11-28T01:50:19.567Z,2.87
2018-11-28T01:52:47.994Z,3.27
2018-11-28T01:55:17.450Z,3.07
2018-11-28T01:57:45.997Z,3.37
2018-11-28T02:00:19.398Z,3.13
2018-11-28T02:02:49.125Z,3.00
2018-11-28T02:05:17.547Z,3.33
2018-11-28T02:07:45.968Z,3.57
2018-11-28T02:10:15.237Z,3.20
2018-11-28T02:12:43.630Z,4.37
2018-11-28T02:15:12.391Z,3.50
2018-11-28T02:17:40.753Z,3.77
2018-11-28T02:20:11.466Z,3.57
2018-11-28T02:22:40.060Z,3.40
2018-11-28T02:25:10.926Z,3.50
2018-11-28T02:27:39.350Z,3.17
2018-11-28T02:30:09.600Z,3.77
2018-11-28T02:32:37.987Z,3.57
2018-11-28T02:35:08.025Z,3.67
2018-11-28T02:37:36.433Z,3.90
2018-11-28T02:40:06.330Z,4.17
2018-11-28T02:42:34.742Z,3.53
2018-11-28T02:45:03.180Z,3.77
2018-11-28T02:47:31.550Z,3.67
2018-11-28T02:49:59.971Z,3.33
2018-11-28T02:52:28.353Z,4.97
2018-11-28T02:54:56.752Z,3.70
2018-11-28T02:57:25.150Z,5.00
2018-11-28T02:59:53.555Z,4.57
2018-11-28T03:02:21.984Z,4.17
2018-11-28T03:04:50.431Z,4.37
2018-11-28T03:07:18.827Z,3.70
2018-11-28T03:09:47.251Z,3.77
2018-11-28T03:12:15.632Z,3.73
2018-11-28T03:14:44.078Z,3.60
2018-11-28T03:17:17.802Z,3.87
2018-11-28T03:19:46.210Z,5.73
2018-11-28T03:22:14.652Z,4.30
2018-11-28T03:24:42.783Z,3.50
2018-11-28T03:27:11.199Z,4.87
2018-11-28T03:29:39.591Z,3.80
2018-11-28T03:32:08.028Z,5.47
2018-11-28T03:34:36.414Z,4.33
2018-11-28T03:37:05.427Z,3.93
2018-11-28T03:39:33.853Z,3.80
2018-11-28T03:42:02.252Z,4.07
2018-11-28T03:44:30.639Z,3.60
2018-11-28T03:46:59.042Z,6.10
2018-11-28T03:49:27.466Z,3.87
2018-11-28T03:51:55.903Z,4.00
2018-11-28T03:54:24.294Z,4.97
2018-11-28T03:56:52.751Z,4.30
2018-11-28T03:59:21.179Z,3.80
2018-11-28T04:01:49.597Z,4.37
2018-11-28T04:04:17.974Z,4.07
2018-11-28T04:06:46.379Z,4.77
2018-11-28T04:09:14.800Z,4.90
2018-11-28T04:11:43.239Z,4.37
2018-11-28T04:14:11.665Z,4.93
2018-11-28T04:16:40.105Z,5.87
2018-11-28T04:19:08.512Z,4.10
2018-11-28T04:21:36.961Z,5.37
2018-11-28T04:24:05.386Z,4.17
2018-11-28T04:26:33.792Z,4.63
2018-11-28T04:29:01.945Z,4.37
2018-11-28T04:31:30.355Z,4.83
2018-11-28T04:33:58.725Z,4.90
2018-11-28T04:36:27.134Z,4.43
2018-11-28T04:38:55.559Z,4.93
2018-11-28T04:41:23.953Z,4.53
2018-11-28T04:43:52.339Z,4.63
2018-11-28T04:46:20.774Z,4.03
2018-11-28T04:48:49.162Z,5.10
2018-11-28T04:51:17.572Z,4.17
2018-11-28T04:53:46.007Z,4.33
2018-11-28T04:56:14.434Z,4.60
2018-11-28T04:58:42.836Z,5.67
2018-11-28T05:01:11.219Z,4.17
2018-11-28T05:03:39.610Z,4.50
2018-11-28T05:06:08.015Z,4.67
2018-11-28T05:08:36.408Z,5.53
2018-11-28T05:11:04.814Z,5.33
2018-11-28T05:13:33.216Z,3.97
2018-11-28T05:16:01.610Z,4.90
2018-11-28T05:18:30.010Z,3.70
2018-11-28T05:20:58.398Z,3.93
2018-11-28T05:23:27.210Z,4.57
2018-11-28T05:25:55.710Z,5.67
2018-11-28T05:28:24.107Z,4.43
2018-11-28T05:30:52.474Z,4.33
2018-11-28T05:33:20.862Z,4.57
2018-11-28T05:35:49.283Z,3.10
2018-11-28T05:38:17.716Z,4.73
2018-11-28T05:40:46.162Z,3.97
2018-11-28T05:43:14.295Z,5.23
2018-11-28T05:45:42.681Z,4.50
2018-11-28T05:48:11.081Z,4.97
2018-11-28T05:50:39.499Z,4.73
2018-11-28T05:53:07.634Z,5.03
2018-11-28T05:55:36.150Z,6.30
2018-11-28T05:58:05.726Z,4.77
2018-11-28T06:00:38.124Z,6.20
2018-11-28T06:03:07.847Z,6.77
2018-11-28T06:05:36.580Z,7.10
2018-11-28T06:08:04.988Z,6.87
2018-11-28T06:10:33.360Z,7.13
2018-11-28T06:13:01.781Z,7.37
2018-11-28T06:15:30.197Z,7.57
2018-11-28T06:17:58.589Z,7.40
2018-11-28T06:20:27.023Z,7.97
2018-11-28T06:22:55.421Z,10.27
2018-11-28T06:25:23.858Z,8.60
2018-11-28T06:27:52.307Z,10.17
2018-11-28T06:30:21.080Z,9.10
2018-11-28T06:32:51.477Z,9.57
2018-11-28T06:35:18.006Z,9.87
2018-11-28T06:37:46.385Z,8.50
2018-11-28T06:40:17.097Z,8.60
2018-11-28T06:42:48.897Z,9.53
2018-11-28T06:45:21.485Z,9.13
2018-11-28T06:47:49.902Z,9.60
2018-11-28T06:50:19.120Z,10.70
2018-11-28T06:52:48.803Z,14.73
2018-11-28T06:55:18.367Z,11.23
2018-11-28T06:57:46.483Z,13.27
2018-11-28T07:00:15.838Z,11.87
2018-11-28T07:02:44.318Z,12.53
2018-11-28T07:05:13.151Z,11.30
2018-11-28T07:07:41.544Z,12.40
2018-11-28T07:10:11.458Z,11.67
2018-11-28T07:12:39.961Z,13.33
2018-11-28T07:15:12.872Z,11.17
2018-11-28T07:17:41.748Z,13.43
2018-11-28T07:20:13.389Z,13.57
2018-11-28T07:22:41.978Z,13.90
2018-11-28T07:25:11.813Z,14.43
2018-11-28T07:27:45.166Z,14.27
2018-11-28T07:35:05.189Z,11.27
2018-11-28T07:37:33.605Z,15.00
2018-11-28T07:40:02.015Z,12.90
2018-11-28T07:42:30.438Z,12.70
2018-11-28T07:44:58.873Z,11.83
2018-11-28T07:47:27.015Z,13.63
2018-11-28T07:49:55.398Z,13.80
2018-11-28T07:52:23.811Z,12.67
2018-11-28T07:54:52.236Z,11.73
2018-11-28T07:57:20.667Z,12.67
2018-11-28T07:59:49.183Z,11.20
2018-11-28T08:02:17.615Z,11.37
2018-11-28T08:04:46.051Z,12.47
2018-11-28T08:07:14.458Z,11.13
2018-11-28T08:09:42.840Z,9.87
2018-11-28T08:12:11.290Z,13.60
2018-11-28T08:14:39.807Z,12.33
2018-11-28T08:17:07.929Z,14.13
2018-11-28T08:19:36.352Z,11.80
2018-11-28T08:22:04.840Z,11.07
2018-11-28T08:24:33.230Z,11.13
2018-11-28T08:27:01.682Z,11.87
2018-11-28T08:29:30.118Z,13.77
2018-11-28T08:31:58.515Z,14.43
2018-11-28T08:34:26.999Z,12.33
2018-11-28T08:36:55.420Z,11.33
2018-11-28T08:39:23.805Z,11.83
2018-11-28T08:41:52.261Z,13.67
2018-11-28T08:44:20.665Z,14.07
2018-11-28T08:46:49.120Z,13.03
2018-11-28T08:49:17.527Z,12.07
2018-11-28T08:51:45.942Z,11.63
2018-11-28T08:54:14.376Z,11.10
2018-11-28T08:56:42.786Z,12.30
2018-11-28T08:59:11.173Z,11.33
2018-11-28T09:01:39.570Z,12.70
2018-11-28T09:04:07.959Z,11.33
2018-11-28T09:06:36.397Z,12.80
2018-11-28T09:09:06.843Z,11.30
2018-11-28T09:11:35.226Z,11.83
2018-11-28T09:14:04.658Z,10.93
2018-11-28T09:16:32.133Z,12.57
2018-11-28T09:19:00.532Z,11.20
2018-11-28T09:21:28.942Z,11.37
2018-11-28T09:23:57.338Z,10.30
2018-11-28T09:26:25.737Z,11.37
2018-11-28T09:28:54.129Z,11.57
2018-11-28T09:31:22.507Z,8.63
2018-11-28T09:33:50.946Z,11.03
2018-11-28T09:36:19.383Z,9.97
2018-11-28T09:38:47.790Z,11.27
2018-11-28T09:41:16.174Z,11.97
2018-11-28T09:43:44.586Z,10.60
2018-11-28T09:46:12.975Z,11.03
2018-11-28T09:48:41.129Z,10.37
2018-11-28T09:51:09.548Z,11.93
2018-11-28T09:53:37.975Z,13.33
2018-11-28T09:56:06.476Z,11.17
2018-11-28T09:58:34.898Z,11.80
2018-11-28T10:01:03.329Z,11.90
2018-11-28T10:03:31.778Z,11.10
2018-11-28T10:06:00.336Z,10.37
2018-11-28T10:08:28.757Z,12.17
2018-11-28T10:10:57.157Z,10.73
2018-11-28T10:13:25.561Z,10.87
2018-11-28T10:15:53.993Z,10.97
2018-11-28T10:18:22.441Z,13.13
2018-11-28T10:20:50.876Z,11.50
2018-11-28T10:23:19.323Z,10.50
2018-11-28T10:25:47.426Z,11.60
2018-11-28T10:28:15.850Z,10.73
2018-11-28T10:30:44.240Z,10.10
2018-11-28T10:33:12.925Z,10.50
2018-11-28T10:35:41.640Z,9.50
2018-11-28T10:38:10.175Z,11.03
2018-11-28T10:40:38.592Z,10.77
2018-11-28T10:43:08.552Z,10.83
2018-11-28T10:45:37.546Z,10.83
2018-11-28T10:48:07.213Z,10.90
2018-11-28T10:50:35.659Z,12.50
2018-11-28T10:53:04.114Z,12.73
2018-11-28T10:55:32.518Z,12.40
2018-11-28T10:58:00.642Z,9.33
2018-11-28T11:00:36.163Z,14.10
2018-11-28T11:03:11.284Z,10.47
2018-11-28T11:05:45.223Z,13.10
2018-11-28T11:08:18.982Z,9.63
2018-11-28T11:10:52.660Z,13.53
2018-11-28T11:13:26.550Z,11.57
2018-11-28T11:15:59.590Z,10.77
2018-11-28T11:18:28.587Z,13.00
2018-11-28T11:20:57.137Z,11.13
2018-11-28T11:23:25.550Z,13.17
2018-11-28T11:25:54.304Z,12.30
2018-11-28T11:28:22.771Z,10.43
2018-11-28T11:30:51.222Z,12.30
2018-11-28T11:33:19.357Z,12.90
2018-11-28T11:35:47.774Z,12.20
2018-11-28T11:38:16.194Z,10.93
2018-11-28T11:40:44.617Z,13.57
2018-11-28T11:43:13.014Z,11.27
2018-11-28T11:45:41.499Z,10.37
2018-11-28T11:48:09.934Z,11.33
2018-11-28T11:50:38.424Z,12.80
2018-11-28T11:53:08.186Z,13.10
2018-11-28T11:55:36.746Z,11.47
2018-11-28T11:58:05.600Z,11.93
2018-11-28T12:00:34.048Z,11.97
2018-11-28T12:03:12.144Z,13.37
2018-11-28T12:05:46.422Z,11.20
2018-11-28T12:08:14.857Z,11.23
2018-11-28T12:10:43.279Z,11.23
2018-11-28T12:13:11.697Z,12.17
2018-11-28T12:15:40.140Z,13.83
2018-11-28T12:18:08.564Z,10.73
2018-11-28T12:20:48.606Z,11.60
2018-11-28T12:23:17.005Z,13.17
2018-11-28T12:25:45.479Z,13.23
2018-11-28T12:28:14.130Z,10.27
2018-11-28T12:30:42.457Z,11.63
2018-11-28T12:33:10.838Z,12.10
2018-11-28T12:35:39.266Z,11.57
2018-11-28T12:38:07.406Z,10.90
2018-11-28T12:40:36.582Z,12.03
2018-11-28T12:43:06.747Z,13.77
2018-11-28T12:45:34.898Z,13.73
2018-11-28T12:48:03.319Z,11.20
2018-11-28T12:50:32.027Z,14.93
2018-11-28T12:53:02.199Z,12.50
2018-11-28T12:55:32.121Z,14.43
2018-11-28T12:58:00.269Z,14.83
2018-11-28T13:00:31.349Z,12.73
2018-11-28T13:02:59.758Z,12.20
2018-11-28T13:05:28.194Z,11.73
2018-11-28T13:07:56.674Z,12.73
2018-11-28T13:10:27.398Z,12.90
2018-11-28T13:12:56.173Z,12.00
2018-11-28T13:15:25.527Z,11.67
2018-11-28T13:17:53.939Z,12.57
2018-11-28T13:20:22.951Z,13.13
2018-11-28T13:22:52.598Z,13.27
2018-11-28T13:25:22.477Z,12.23
2018-11-28T13:27:51.290Z,14.30
2018-11-28T13:30:20.537Z,15.50
2018-11-28T13:32:49.609Z,13.90
2018-11-28T13:35:20.899Z,13.40
2018-11-28T13:37:51.325Z,12.87
2018-11-28T13:40:20.148Z,12.83
2018-11-28T13:42:48.559Z,12.37
2018-11-28T13:45:19.276Z,15.33
2018-11-28T13:47:48.963Z,10.93
2018-11-28T13:50:17.414Z,13.00
2018-11-28T13:52:46.004Z,12.37
2018-11-28T13:55:38.152Z,13.73
2018-11-28T13:57:58.116Z,12.27
2018-11-28T14:00:26.550Z,13.77
2018-11-28T14:02:55.002Z,12.83
2018-11-28T14:05:23.530Z,11.47
2018-11-28T14:07:52.021Z,11.83
2018-11-28T14:10:20.496Z,12.50
2018-11-28T14:12:48.894Z,11.50
2018-11-28T14:15:18.245Z,11.47
2018-11-28T14:17:51.703Z,14.13
2018-11-28T14:20:20.143Z,11.33
2018-11-28T14:22:48.552Z,12.20
2018-11-28T14:25:17.016Z,12.63
2018-11-28T14:27:45.414Z,11.10
2018-11-28T14:30:14.349Z,13.33
2018-11-28T14:32:42.866Z,12.67
2018-11-28T14:35:11.899Z,12.33
2018-11-28T14:37:40.390Z,14.70
2018-11-28T14:40:11.039Z,12.63
2018-11-28T14:42:39.455Z,13.10
2018-11-28T14:45:18.057Z,11.37
2018-11-28T14:47:47.015Z,13.77
2018-11-28T14:50:22.386Z,12.77
2018-11-28T14:52:51.270Z,12.73
2018-11-28T14:55:23.215Z,14.33
2018-11-28T14:57:51.785Z,13.77
2018-11-28T15:00:25.045Z,13.10
2018-11-28T15:02:55.974Z,12.50
2018-11-28T15:05:56.123Z,13.33
2018-11-28T15:08:25.287Z,13.27
2018-11-28T15:11:00.938Z,10.70
2018-11-28T15:13:29.130Z,11.67
2018-11-28T15:15:57.775Z,23.07
2018-11-28T15:18:26.220Z,22.13
2018-11-28T15:20:54.615Z,11.20
2018-11-28T15:23:23.079Z,12.10
2018-11-28T15:25:51.535Z,11.00
2018-11-28T15:28:19.978Z,22.27
2018-11-28T15:30:48.393Z,12.20
2018-11-28T15:33:16.834Z,11.73
2018-11-28T15:35:45.287Z,11.37
2018-11-28T15:38:13.710Z,13.53
2018-11-28T15:40:42.171Z,11.37
2018-11-28T15:43:10.605Z,10.47
2018-11-28T15:45:38.721Z,12.40
2018-11-28T15:48:07.334Z,11.40
2018-11-28T15:50:35.723Z,11.63
2018-11-28T15:53:04.175Z,13.37
2018-11-28T15:55:32.596Z,10.37
2018-11-28T15:58:01.022Z,11.57
2018-11-28T16:00:29.476Z,12.20
2018-11-28T16:02:57.898Z,11.40
2018-11-28T16:05:26.010Z,12.47
2018-11-28T16:07:54.461Z,12.30
2018-11-28T16:10:28.091Z,10.57
2018-11-28T16:12:56.536Z,11.80
2018-11-28T16:15:27.949Z,11.87
2018-11-28T16:17:56.479Z,12.00
2018-11-28T16:20:24.942Z,11.43
2018-11-28T16:22:53.379Z,12.00
2018-11-28T16:25:21.779Z,11.67
2018-11-28T16:27:50.316Z,8.93
2018-11-28T16:30:18.706Z,11.80
2018-11-28T16:32:46.861Z,11.60
2018-11-28T16:35:16.574Z,12.33
2018-11-28T16:37:45.023Z,11.23
2018-11-28T16:40:14.331Z,11.33
2018-11-28T16:42:42.856Z,13.37
2018-11-28T16:45:13.671Z,12.07
2018-11-28T16:47:42.118Z,12.20
2018-11-28T16:50:10.843Z,13.70
2018-11-28T16:52:39.305Z,13.53
2018-11-28T16:55:09.288Z,13.90
2018-11-28T16:57:37.685Z,12.37
2018-11-28T17:00:15.437Z,12.83
2018-11-28T17:02:43.871Z,13.07
2018-11-28T17:05:14.807Z,12.60
2018-11-28T17:07:43.576Z,12.13
2018-11-28T17:10:15.349Z,13.30
2018-11-28T17:12:44.280Z,13.17
2018-11-28T17:15:13.819Z,12.83
2018-11-28T17:17:42.314Z,12.67
2018-11-28T17:20:13.149Z,12.43
2018-11-28T17:22:41.534Z,13.83
2018-11-28T17:25:13.275Z,14.40
2018-11-28T17:27:41.755Z,13.53
2018-11-28T17:30:18.642Z,13.43
2018-11-28T17:32:42.652Z,14.20
2018-11-28T17:35:11.936Z,12.67
2018-11-28T17:37:40.474Z,12.87
2018-11-28T17:40:10.676Z,12.97
2018-11-28T17:42:39.069Z,15.10
2018-11-28T17:45:10.179Z,13.50
2018-11-28T17:47:38.643Z,11.53
2018-11-28T17:50:23.401Z,14.10
2018-11-28T17:52:54.355Z,12.97
2018-11-28T17:55:22.785Z,15.90
2018-11-28T17:57:51.191Z,15.20
2018-11-28T18:00:20.260Z,15.23
2018-11-28T18:02:48.694Z,14.23
2018-11-28T18:05:17.109Z,16.33
2018-11-28T18:07:45.223Z,18.53
2018-11-28T18:10:15.115Z,16.20
2018-11-28T18:12:48.664Z,15.10
2018-11-28T18:15:17.114Z,15.80
2018-11-28T18:17:45.592Z,16.40
2018-11-28T18:20:14.072Z,13.20
2018-11-28T18:22:42.506Z,16.50
2018-11-28T18:25:11.079Z,17.60
2018-11-28T18:27:39.491Z,15.87
2018-11-28T18:30:09.819Z,17.27
2018-11-28T18:32:38.396Z,16.20
2018-11-28T18:35:08.490Z,16.37
2018-11-28T18:37:37.162Z,18.83
2018-11-28T18:40:08.396Z,13.37
2018-11-28T18:42:36.940Z,15.53
2018-11-28T18:45:14.720Z,15.80
2018-11-28T18:47:43.231Z,14.10
2018-11-28T18:50:12.542Z,13.10
2018-11-28T18:52:40.998Z,14.63
2018-11-28T18:55:16.508Z,17.10
2018-11-28T18:57:41.379Z,13.93
2018-11-28T19:00:20.721Z,15.87
2018-11-28T19:02:48.857Z,14.20
2018-11-28T19:05:17.008Z,14.13
2018-11-28T19:07:45.141Z,13.87
2018-11-28T19:10:17.646Z,15.63
2018-11-28T19:12:46.062Z,19.40
2018-11-28T19:15:15.887Z,14.77
2018-11-28T19:17:45.199Z,15.77
2018-11-28T19:20:14.962Z,15.70
2018-11-28T19:22:43.890Z,14.23
2018-11-28T19:25:13.533Z,15.17
2018-11-28T19:27:42.370Z,15.83
2018-11-28T19:30:12.126Z,13.80
2018-11-28T19:32:40.785Z,13.73
2018-11-28T19:35:10.367Z,12.97
2018-11-28T19:37:39.700Z,17.73
2018-11-28T19:40:17.808Z,14.17
2018-11-28T19:42:46.253Z,15.80
2018-11-28T19:45:14.688Z,11.80
2018-11-28T19:47:43.086Z,14.83
2018-11-28T19:50:23.475Z,14.43
2018-11-28T19:52:51.623Z,15.37
2018-11-28T19:55:20.254Z,13.17
2018-11-28T19:57:48.678Z,17.20
2018-11-28T20:00:18.214Z,11.97
2018-11-28T20:02:47.074Z,13.73
2018-11-28T20:05:15.562Z,13.20
2018-11-28T20:07:46.279Z,15.70
2018-11-28T20:10:17.164Z,14.80
2018-11-28T20:12:45.612Z,14.70
2018-11-28T20:15:20.234Z,15.03
2018-11-28T20:17:48.937Z,13.20
2018-11-28T20:20:17.691Z,15.07
2018-11-28T20:22:46.151Z,17.97
2018-11-28T20:25:16.833Z,15.17
2018-11-28T20:27:47.710Z,15.43
2018-11-28T20:30:17.584Z,12.37
2018-11-28T20:32:46.185Z,13.50
2018-11-28T20:35:14.683Z,16.73
2018-11-28T20:37:43.210Z,14.50
2018-11-28T20:40:13.887Z,14.57
2018-11-28T20:42:51.486Z,13.60
2018-11-28T20:45:19.983Z,16.37
2018-11-28T20:47:48.100Z,15.23
2018-11-28T20:50:19.017Z,14.43
2018-11-28T20:52:47.925Z,13.50
2018-11-28T20:55:16.379Z,13.87
2018-11-28T20:57:44.885Z,16.07
2018-11-28T21:00:18.614Z,16.10
2018-11-28T21:02:47.107Z,14.63
2018-11-28T21:05:15.541Z,14.70
2018-11-28T21:07:43.670Z,16.53
2018-11-28T21:10:19.482Z,13.80
2018-11-28T21:12:47.937Z,14.87
2018-11-28T21:15:16.337Z,14.37
2018-11-28T21:17:45.380Z,13.70
2018-11-28T21:20:16.817Z,14.10
2018-11-28T21:22:48.578Z,12.93
2018-11-28T21:25:17.018Z,14.93
2018-11-28T21:27:45.433Z,13.87
2018-11-28T21:30:15.150Z,14.30
2018-11-28T21:32:43.966Z,15.30
2018-11-28T21:35:15.370Z,14.30
2018-11-28T21:37:43.838Z,14.67
2018-11-28T21:40:12.588Z,13.90
2018-11-28T21:42:40.725Z,15.17
2018-11-28T21:45:11.118Z,15.27
2018-11-28T21:47:39.578Z,13.93
2018-11-28T21:50:09.983Z,12.53
2018-11-28T21:52:38.402Z,14.13
2018-11-28T21:55:08.431Z,14.20
2018-11-28T21:57:36.870Z,12.77
2018-11-28T22:00:11.568Z,13.27
2018-11-28T22:02:40.014Z,14.80
2018-11-28T22:05:09.641Z,13.47
2018-11-28T22:07:38.287Z,14.23
2018-11-28T22:10:15.525Z,14.60
2018-11-28T22:12:43.653Z,13.70
2018-11-28T22:15:13.011Z,13.87
2018-11-28T22:17:45.853Z,13.47
2018-11-28T22:20:14.855Z,14.80
2018-11-28T22:22:43.350Z,13.90
2018-11-28T22:25:18.514Z,16.00
2018-11-28T22:27:46.917Z,13.13
2018-11-28T22:30:16.500Z,14.67
2018-11-28T22:32:45.230Z,13.83
2018-11-28T22:35:13.655Z,15.00
2018-11-28T22:37:42.156Z,14.10
2018-11-28T22:40:30.335Z,15.20
2018-11-28T22:42:58.754Z,13.67
2018-11-28T22:45:31.498Z,14.20
2018-11-28T22:47:59.954Z,14.13
2018-11-28T22:50:28.352Z,13.97
2018-11-28T22:52:56.814Z,14.73
2018-11-28T22:55:25.266Z,14.93
2018-11-28T22:57:53.724Z,13.80
2018-11-28T23:02:31.393Z,13.30
2018-11-28T23:04:59.847Z,12.50
2018-11-28T23:07:28.295Z,13.33
2018-11-28T23:09:56.703Z,12.70
2018-11-28T23:12:25.131Z,14.47
2018-11-28T23:14:53.616Z,14.53
2018-11-28T23:17:22.018Z,13.63
2018-11-28T23:19:50.422Z,11.97
2018-11-28T23:22:18.802Z,13.53
2018-11-28T23:24:47.215Z,13.30
2018-11-28T23:27:15.781Z,12.50
2018-11-28T23:29:43.918Z,13.07
2018-11-28T23:32:12.363Z,13.57
2018-11-28T23:34:40.766Z,15.73
2018-11-28T23:37:09.154Z,16.07
2018-11-28T23:39:37.599Z,14.13
2018-11-28T23:42:06.143Z,16.50
2018-11-28T23:44:34.244Z,14.57
2018-11-28T23:47:02.810Z,14.33
2018-11-28T23:49:31.248Z,16.50
2018-11-28T23:51:59.654Z,13.93
2018-11-28T23:54:28.051Z,13.97
2018-11-28T23:56:56.434Z,15.73
2018-11-28T23:59:24.830Z,16.43
